sensor_id;sensor_type;location;lat;lon;timestamp;P1;durP1;ratioP1;P2;durP2;ratioP2
59263;SDS011;45030;42.720;23.344;2023-02-28T00:01:30;38.65;;;15.88;;
59263;SDS011;45030;42.720;23.344;2023-02-28T00:03:55;34.10;;;15.38;;
59263;SDS011;45030;42.720;23.344;2023-02-28T00:06:21;30.15;;;15.10;;
59263;SDS011;45030;42.720;23.344;2023-02-28T00:08:46;31.92;;;15.30;;
59263;SDS011;45030;42.720;23.344;2023-02-28T00:11:13;32.75;;;14.63;;
59263;SDS011;45030;42.720;23.344;2023-02-28T00:13:39;41.13;;;16.85;;
59263;SDS011;45030;42.720;23.344;2023-02-28T00:16:06;37.65;;;16.70;;
59263;SDS011;45030;42.720;23.344;2023-02-28T00:18:31;40.70;;;16.63;;
59263;SDS011;45030;42.720;23.344;2023-02-28T00:20:57;28.25;;;15.80;;
59263;SDS011;45030;42.720;23.344;2023-02-28T00:23:22;30.45;;;16.05;;
59263;SDS011;45030;42.720;23.344;2023-02-28T00:25:48;29.95;;;14.52;;
59263;SDS011;45030;42.720;23.344;2023-02-28T00:28:13;33.45;;;15.05;;
59263;SDS011;45030;42.720;23.344;2023-02-28T00:30:38;30.20;;;15.32;;
59263;SDS011;45030;42.720;23.344;2023-02-28T00:33:03;36.78;;;15.63;;
59263;SDS011;45030;42.720;23.344;2023-02-28T00:35:29;25.48;;;14.30;;
59263;SDS011;45030;42.720;23.344;2023-02-28T00:37:54;34.10;;;15.07;;
59263;SDS011;45030;42.720;23.344;2023-02-28T00:40:19;37.78;;;16.13;;
59263;SDS011;45030;42.720;23.344;2023-02-28T00:42:45;31.92;;;15.63;;
59263;SDS011;45030;42.720;23.344;2023-02-28T00:45:10;28.95;;;14.68;;
59263;SDS011;45030;42.720;23.344;2023-02-28T00:47:35;28.15;;;14.18;;
59263;SDS011;45030;42.720;23.344;2023-02-28T00:50:00;24.05;;;11.75;;
59263;SDS011;45030;42.720;23.344;2023-02-28T00:52:26;22.88;;;12.00;;
59263;SDS011;45030;42.720;23.344;2023-02-28T00:54:51;25.90;;;11.63;;
59263;SDS011;45030;42.720;23.344;2023-02-28T00:57:16;25.85;;;12.85;;
59263;SDS011;45030;42.720;23.344;2023-02-28T00:59:41;22.52;;;11.30;;
59263;SDS011;45030;42.720;23.344;2023-02-28T01:02:07;26.73;;;12.52;;
59263;SDS011;45030;42.720;23.344;2023-02-28T01:04:32;27.23;;;12.65;;
59263;SDS011;45030;42.720;23.344;2023-02-28T01:06:57;29.50;;;12.30;;
59263;SDS011;45030;42.720;23.344;2023-02-28T01:09:22;26.92;;;12.75;;
59263;SDS011;45030;42.720;23.344;2023-02-28T01:11:48;26.83;;;14.45;;
59263;SDS011;45030;42.720;23.344;2023-02-28T01:14:14;28.67;;;13.32;;
59263;SDS011;45030;42.720;23.344;2023-02-28T01:16:39;32.92;;;14.20;;
59263;SDS011;45030;42.720;23.344;2023-02-28T01:19:04;31.92;;;14.05;;
59263;SDS011;45030;42.720;23.344;2023-02-28T01:21:29;34.38;;;15.90;;
59263;SDS011;45030;42.720;23.344;2023-02-28T01:23:56;36.08;;;18.23;;
59263;SDS011;45030;42.720;23.344;2023-02-28T01:26:21;31.48;;;14.70;;
59263;SDS011;45030;42.720;23.344;2023-02-28T01:28:47;35.17;;;15.70;;
59263;SDS011;45030;42.720;23.344;2023-02-28T01:31:12;30.52;;;14.38;;
59263;SDS011;45030;42.720;23.344;2023-02-28T01:33:38;37.60;;;17.52;;
59263;SDS011;45030;42.720;23.344;2023-02-28T01:36:04;31.58;;;16.52;;
59263;SDS011;45030;42.720;23.344;2023-02-28T01:38:30;35.10;;;15.63;;
59263;SDS011;45030;42.720;23.344;2023-02-28T01:40:55;30.42;;;14.05;;
59263;SDS011;45030;42.720;23.344;2023-02-28T01:43:22;30.45;;;14.93;;
59263;SDS011;45030;42.720;23.344;2023-02-28T01:45:48;32.72;;;15.05;;
59263;SDS011;45030;42.720;23.344;2023-02-28T01:48:13;38.35;;;17.45;;
59263;SDS011;45030;42.720;23.344;2023-02-28T01:50:40;38.45;;;16.45;;
59263;SDS011;45030;42.720;23.344;2023-02-28T01:53:07;35.20;;;16.13;;
59263;SDS011;45030;42.720;23.344;2023-02-28T01:55:34;41.30;;;17.27;;
59263;SDS011;45030;42.720;23.344;2023-02-28T01:58:00;33.53;;;15.93;;
59263;SDS011;45030;42.720;23.344;2023-02-28T02:00:27;36.13;;;14.57;;
59263;SDS011;45030;42.720;23.344;2023-02-28T02:02:54;37.05;;;15.38;;
59263;SDS011;45030;42.720;23.344;2023-02-28T02:05:24;41.55;;;17.65;;
59263;SDS011;45030;42.720;23.344;2023-02-28T02:07:51;47.30;;;19.13;;
59263;SDS011;45030;42.720;23.344;2023-02-28T02:10:18;46.88;;;20.00;;
59263;SDS011;45030;42.720;23.344;2023-02-28T02:18:09;37.53;;;17.33;;
59263;SDS011;45030;42.720;23.344;2023-02-28T02:23:19;40.95;;;17.20;;
59263;SDS011;45030;42.720;23.344;2023-02-28T02:31:12;46.50;;;22.05;;
59263;SDS011;45030;42.720;23.344;2023-02-28T02:46:39;49.08;;;21.95;;
59263;SDS011;45030;42.720;23.344;2023-02-28T02:49:07;44.75;;;18.77;;
59263;SDS011;45030;42.720;23.344;2023-02-28T02:51:33;45.75;;;18.98;;
59263;SDS011;45030;42.720;23.344;2023-02-28T02:54:02;39.58;;;17.42;;
59263;SDS011;45030;42.720;23.344;2023-02-28T02:56:29;45.05;;;17.63;;
59263;SDS011;45030;42.720;23.344;2023-02-28T02:58:57;50.28;;;18.58;;
59263;SDS011;45030;42.720;23.344;2023-02-28T03:01:24;43.30;;;19.40;;
59263;SDS011;45030;42.720;23.344;2023-02-28T03:04:04;41.30;;;18.48;;
59263;SDS011;45030;42.720;23.344;2023-02-28T03:06:30;50.30;;;19.30;;
59263;SDS011;45030;42.720;23.344;2023-02-28T03:08:56;43.90;;;18.73;;
59263;SDS011;45030;42.720;23.344;2023-02-28T03:11:21;55.47;;;20.17;;
59263;SDS011;45030;42.720;23.344;2023-02-28T03:19:29;57.78;;;25.15;;
59263;SDS011;45030;42.720;23.344;2023-02-28T03:22:04;72.60;;;31.40;;
59263;SDS011;45030;42.720;23.344;2023-02-28T03:24:34;62.20;;;24.45;;
59263;SDS011;45030;42.720;23.344;2023-02-28T03:27:05;59.85;;;22.88;;
59263;SDS011;45030;42.720;23.344;2023-02-28T03:32:02;48.33;;;20.88;;
59263;SDS011;45030;42.720;23.344;2023-02-28T03:34:30;51.58;;;19.75;;
59263;SDS011;45030;42.720;23.344;2023-02-28T03:36:59;58.75;;;20.80;;
59263;SDS011;45030;42.720;23.344;2023-02-28T03:39:28;53.17;;;21.65;;
59263;SDS011;45030;42.720;23.344;2023-02-28T03:41:57;42.58;;;19.38;;
59263;SDS011;45030;42.720;23.344;2023-02-28T03:44:30;50.60;;;21.00;;
59263;SDS011;45030;42.720;23.344;2023-02-28T03:47:02;64.38;;;25.27;;
59263;SDS011;45030;42.720;23.344;2023-02-28T03:49:32;46.83;;;21.25;;
59263;SDS011;45030;42.720;23.344;2023-02-28T03:51:59;37.78;;;18.45;;
59263;SDS011;45030;42.720;23.344;2023-02-28T03:54:30;35.58;;;17.27;;
59263;SDS011;45030;42.720;23.344;2023-02-28T03:57:02;38.67;;;17.77;;
59263;SDS011;45030;42.720;23.344;2023-02-28T03:59:32;45.22;;;23.40;;
59263;SDS011;45030;42.720;23.344;2023-02-28T04:01:59;38.80;;;18.20;;
59263;SDS011;45030;42.720;23.344;2023-02-28T04:04:24;36.08;;;16.10;;
59263;SDS011;45030;42.720;23.344;2023-02-28T04:06:50;38.33;;;17.85;;
59263;SDS011;45030;42.720;23.344;2023-02-28T04:09:16;33.95;;;17.00;;
59263;SDS011;45030;42.720;23.344;2023-02-28T04:11:51;40.97;;;18.42;;
59263;SDS011;45030;42.720;23.344;2023-02-28T04:14:17;43.15;;;20.42;;
59263;SDS011;45030;42.720;23.344;2023-02-28T04:16:42;45.63;;;22.23;;
59263;SDS011;45030;42.720;23.344;2023-02-28T04:19:08;38.28;;;17.95;;
59263;SDS011;45030;42.720;23.344;2023-02-28T04:21:37;36.42;;;16.55;;
59263;SDS011;45030;42.720;23.344;2023-02-28T04:24:07;35.28;;;17.10;;
59263;SDS011;45030;42.720;23.344;2023-02-28T04:26:34;48.15;;;18.67;;
59263;SDS011;45030;42.720;23.344;2023-02-28T04:28:59;48.10;;;21.45;;
59263;SDS011;45030;42.720;23.344;2023-02-28T04:31:25;99.53;;;41.15;;
59263;SDS011;45030;42.720;23.344;2023-02-28T04:33:50;93.95;;;44.80;;
59263;SDS011;45030;42.720;23.344;2023-02-28T04:36:16;78.32;;;38.08;;
59263;SDS011;45030;42.720;23.344;2023-02-28T04:38:43;63.20;;;31.58;;
59263;SDS011;45030;42.720;23.344;2023-02-28T04:41:08;57.30;;;28.67;;
59263;SDS011;45030;42.720;23.344;2023-02-28T04:43:33;53.88;;;25.23;;
59263;SDS011;45030;42.720;23.344;2023-02-28T04:46:00;70.80;;;23.30;;
59263;SDS011;45030;42.720;23.344;2023-02-28T04:48:29;54.25;;;19.73;;
59263;SDS011;45030;42.720;23.344;2023-02-28T04:50:54;57.30;;;20.40;;
59263;SDS011;45030;42.720;23.344;2023-02-28T04:53:20;65.40;;;18.70;;
59263;SDS011;45030;42.720;23.344;2023-02-28T04:55:45;63.88;;;18.27;;
59263;SDS011;45030;42.720;23.344;2023-02-28T04:58:11;52.58;;;19.45;;
59263;SDS011;45030;42.720;23.344;2023-02-28T05:00:36;100.20;;;19.63;;
59263;SDS011;45030;42.720;23.344;2023-02-28T05:03:02;167.38;;;23.40;;
59263;SDS011;45030;42.720;23.344;2023-02-28T05:05:27;56.20;;;18.33;;
59263;SDS011;45030;42.720;23.344;2023-02-28T05:07:53;63.70;;;17.70;;
59263;SDS011;45030;42.720;23.344;2023-02-28T05:10:20;46.80;;;15.75;;
59263;SDS011;45030;42.720;23.344;2023-02-28T05:12:45;212.07;;;45.72;;
59263;SDS011;45030;42.720;23.344;2023-02-28T05:15:12;140.23;;;30.95;;
59263;SDS011;45030;42.720;23.344;2023-02-28T05:17:38;121.90;;;32.08;;
59263;SDS011;45030;42.720;23.344;2023-02-28T05:20:03;63.97;;;19.20;;
59263;SDS011;45030;42.720;23.344;2023-02-28T05:22:29;72.22;;;20.90;;
59263;SDS011;45030;42.720;23.344;2023-02-28T05:24:55;81.18;;;19.02;;
59263;SDS011;45030;42.720;23.344;2023-02-28T05:27:20;98.68;;;19.80;;
59263;SDS011;45030;42.720;23.344;2023-02-28T05:29:45;153.20;;;27.85;;
59263;SDS011;45030;42.720;23.344;2023-02-28T05:32:11;112.47;;;28.58;;
59263;SDS011;45030;42.720;23.344;2023-02-28T05:34:37;82.25;;;21.20;;
59263;SDS011;45030;42.720;23.344;2023-02-28T05:37:02;144.20;;;33.25;;
59263;SDS011;45030;42.720;23.344;2023-02-28T05:39:28;97.20;;;26.77;;
59263;SDS011;45030;42.720;23.344;2023-02-28T05:41:53;69.93;;;22.85;;
59263;SDS011;45030;42.720;23.344;2023-02-28T05:44:18;120.88;;;23.70;;
59263;SDS011;45030;42.720;23.344;2023-02-28T05:46:43;59.95;;;17.80;;
59263;SDS011;45030;42.720;23.344;2023-02-28T05:49:09;81.82;;;20.77;;
59263;SDS011;45030;42.720;23.344;2023-02-28T05:51:34;63.63;;;17.05;;
59263;SDS011;45030;42.720;23.344;2023-02-28T05:54:01;61.92;;;18.10;;
59263;SDS011;45030;42.720;23.344;2023-02-28T05:56:26;60.83;;;19.23;;
59263;SDS011;45030;42.720;23.344;2023-02-28T05:58:52;57.38;;;18.58;;
59263;SDS011;45030;42.720;23.344;2023-02-28T06:04:00;65.97;;;21.27;;
59263;SDS011;45030;42.720;23.344;2023-02-28T06:06:26;61.30;;;21.00;;
59263;SDS011;45030;42.720;23.344;2023-02-28T06:08:51;72.75;;;22.05;;
59263;SDS011;45030;42.720;23.344;2023-02-28T06:11:17;55.70;;;19.77;;
59263;SDS011;45030;42.720;23.344;2023-02-28T06:13:44;76.38;;;21.90;;
59263;SDS011;45030;42.720;23.344;2023-02-28T06:16:10;49.42;;;19.90;;
59263;SDS011;45030;42.720;23.344;2023-02-28T06:18:35;65.68;;;20.88;;
59263;SDS011;45030;42.720;23.344;2023-02-28T06:21:01;68.15;;;20.35;;
59263;SDS011;45030;42.720;23.344;2023-02-28T06:23:26;63.90;;;18.25;;
59263;SDS011;45030;42.720;23.344;2023-02-28T06:25:52;47.22;;;18.20;;
59263;SDS011;45030;42.720;23.344;2023-02-28T06:28:18;53.55;;;18.35;;
59263;SDS011;45030;42.720;23.344;2023-02-28T06:30:43;54.78;;;19.45;;
59263;SDS011;45030;42.720;23.344;2023-02-28T06:33:08;48.67;;;17.90;;
59263;SDS011;45030;42.720;23.344;2023-02-28T06:35:33;52.17;;;19.80;;
59263;SDS011;45030;42.720;23.344;2023-02-28T06:37:59;54.90;;;20.90;;
59263;SDS011;45030;42.720;23.344;2023-02-28T06:40:24;67.88;;;23.50;;
59263;SDS011;45030;42.720;23.344;2023-02-28T06:42:49;75.30;;;26.55;;
59263;SDS011;45030;42.720;23.344;2023-02-28T06:45:14;64.03;;;25.35;;
59263;SDS011;45030;42.720;23.344;2023-02-28T06:47:40;50.95;;;22.13;;
59263;SDS011;45030;42.720;23.344;2023-02-28T06:50:06;52.45;;;21.60;;
59263;SDS011;45030;42.720;23.344;2023-02-28T06:52:32;48.95;;;21.75;;
59263;SDS011;45030;42.720;23.344;2023-02-28T06:54:57;54.38;;;22.45;;
59263;SDS011;45030;42.720;23.344;2023-02-28T06:57:29;60.22;;;26.02;;
59263;SDS011;45030;42.720;23.344;2023-02-28T06:59:56;43.80;;;20.50;;
59263;SDS011;45030;42.720;23.344;2023-02-28T07:02:22;71.00;;;32.85;;
59263;SDS011;45030;42.720;23.344;2023-02-28T07:04:47;53.10;;;24.92;;
59263;SDS011;45030;42.720;23.344;2023-02-28T07:07:12;67.57;;;34.33;;
59263;SDS011;45030;42.720;23.344;2023-02-28T07:09:37;42.63;;;19.77;;
59263;SDS011;45030;42.720;23.344;2023-02-28T07:12:03;39.53;;;19.75;;
59263;SDS011;45030;42.720;23.344;2023-02-28T07:14:28;42.33;;;19.00;;
59263;SDS011;45030;42.720;23.344;2023-02-28T07:16:53;32.75;;;17.55;;
59263;SDS011;45030;42.720;23.344;2023-02-28T07:19:18;42.13;;;21.13;;
59263;SDS011;45030;42.720;23.344;2023-02-28T07:21:44;33.90;;;18.13;;
59263;SDS011;45030;42.720;23.344;2023-02-28T07:24:10;36.47;;;17.38;;
59263;SDS011;45030;42.720;23.344;2023-02-28T07:26:35;33.88;;;15.43;;
59263;SDS011;45030;42.720;23.344;2023-02-28T07:29:00;38.50;;;17.77;;
59263;SDS011;45030;42.720;23.344;2023-02-28T07:31:27;38.53;;;18.02;;
59263;SDS011;45030;42.720;23.344;2023-02-28T07:33:52;35.22;;;17.33;;
59263;SDS011;45030;42.720;23.344;2023-02-28T07:36:19;38.20;;;18.98;;
59263;SDS011;45030;42.720;23.344;2023-02-28T07:38:45;38.00;;;18.52;;
59263;SDS011;45030;42.720;23.344;2023-02-28T07:41:11;39.25;;;18.60;;
59263;SDS011;45030;42.720;23.344;2023-02-28T07:43:37;37.95;;;18.20;;
59263;SDS011;45030;42.720;23.344;2023-02-28T07:46:04;37.47;;;19.70;;
59263;SDS011;45030;42.720;23.344;2023-02-28T07:48:29;40.28;;;18.10;;
59263;SDS011;45030;42.720;23.344;2023-02-28T07:50:55;35.88;;;17.95;;
59263;SDS011;45030;42.720;23.344;2023-02-28T07:53:21;38.53;;;19.33;;
59263;SDS011;45030;42.720;23.344;2023-02-28T07:55:46;40.72;;;20.23;;
59263;SDS011;45030;42.720;23.344;2023-02-28T07:58:11;49.33;;;21.30;;
59263;SDS011;45030;42.720;23.344;2023-02-28T08:00:36;55.00;;;25.10;;
59263;SDS011;45030;42.720;23.344;2023-02-28T08:03:02;57.40;;;26.80;;
59263;SDS011;45030;42.720;23.344;2023-02-28T08:05:27;58.20;;;26.63;;
59263;SDS011;45030;42.720;23.344;2023-02-28T08:07:52;53.35;;;24.88;;
59263;SDS011;45030;42.720;23.344;2023-02-28T08:10:18;43.40;;;21.95;;
59263;SDS011;45030;42.720;23.344;2023-02-28T08:12:43;44.17;;;21.52;;
59263;SDS011;45030;42.720;23.344;2023-02-28T08:15:08;39.97;;;20.77;;
59263;SDS011;45030;42.720;23.344;2023-02-28T08:17:34;36.95;;;19.55;;
59263;SDS011;45030;42.720;23.344;2023-02-28T08:19:59;37.22;;;19.20;;
59263;SDS011;45030;42.720;23.344;2023-02-28T08:22:24;37.63;;;19.80;;
59263;SDS011;45030;42.720;23.344;2023-02-28T08:24:50;35.45;;;19.30;;
59263;SDS011;45030;42.720;23.344;2023-02-28T08:27:15;38.72;;;19.63;;
59263;SDS011;45030;42.720;23.344;2023-02-28T08:29:40;32.45;;;18.90;;
59263;SDS011;45030;42.720;23.344;2023-02-28T08:32:06;38.40;;;19.48;;
59263;SDS011;45030;42.720;23.344;2023-02-28T08:34:32;29.55;;;17.77;;
59263;SDS011;45030;42.720;23.344;2023-02-28T08:36:57;32.10;;;19.80;;
59263;SDS011;45030;42.720;23.344;2023-02-28T08:39:22;32.72;;;19.23;;
59263;SDS011;45030;42.720;23.344;2023-02-28T08:41:47;32.50;;;17.88;;
59263;SDS011;45030;42.720;23.344;2023-02-28T08:44:13;34.60;;;18.30;;
59263;SDS011;45030;42.720;23.344;2023-02-28T08:46:38;35.55;;;19.33;;
59263;SDS011;45030;42.720;23.344;2023-02-28T08:49:03;41.88;;;21.15;;
59263;SDS011;45030;42.720;23.344;2023-02-28T08:51:28;34.90;;;18.67;;
59263;SDS011;45030;42.720;23.344;2023-02-28T08:54:00;47.45;;;21.50;;
59263;SDS011;45030;42.720;23.344;2023-02-28T08:56:25;39.65;;;18.95;;
59263;SDS011;45030;42.720;23.344;2023-02-28T08:58:51;41.90;;;20.25;;
59263;SDS011;45030;42.720;23.344;2023-02-28T09:01:20;36.83;;;19.00;;
59263;SDS011;45030;42.720;23.344;2023-02-28T09:03:47;37.65;;;18.50;;
59263;SDS011;45030;42.720;23.344;2023-02-28T09:06:13;40.88;;;19.77;;
59263;SDS011;45030;42.720;23.344;2023-02-28T09:08:39;28.77;;;15.40;;
59263;SDS011;45030;42.720;23.344;2023-02-28T09:11:05;28.02;;;15.30;;
59263;SDS011;45030;42.720;23.344;2023-02-28T09:13:30;27.17;;;13.45;;
59263;SDS011;45030;42.720;23.344;2023-02-28T09:15:57;27.58;;;14.20;;
59263;SDS011;45030;42.720;23.344;2023-02-28T09:18:22;26.92;;;12.98;;
59263;SDS011;45030;42.720;23.344;2023-02-28T09:20:47;29.38;;;16.50;;
59263;SDS011;45030;42.720;23.344;2023-02-28T09:23:13;26.98;;;12.32;;
59263;SDS011;45030;42.720;23.344;2023-02-28T09:25:44;23.50;;;12.32;;
59263;SDS011;45030;42.720;23.344;2023-02-28T09:28:09;26.92;;;14.40;;
59263;SDS011;45030;42.720;23.344;2023-02-28T09:30:34;22.27;;;9.82;;
59263;SDS011;45030;42.720;23.344;2023-02-28T09:33:00;23.08;;;12.60;;
59263;SDS011;45030;42.720;23.344;2023-02-28T09:35:25;23.65;;;13.82;;
59263;SDS011;45030;42.720;23.344;2023-02-28T09:37:51;22.52;;;12.05;;
59263;SDS011;45030;42.720;23.344;2023-02-28T09:40:17;31.13;;;15.82;;
59263;SDS011;45030;42.720;23.344;2023-02-28T09:42:44;23.38;;;10.48;;
59263;SDS011;45030;42.720;23.344;2023-02-28T09:45:18;23.83;;;12.98;;
59263;SDS011;45030;42.720;23.344;2023-02-28T09:47:44;22.65;;;12.25;;
59263;SDS011;45030;42.720;23.344;2023-02-28T09:50:17;23.60;;;12.75;;
59263;SDS011;45030;42.720;23.344;2023-02-28T09:52:46;21.00;;;13.23;;
59263;SDS011;45030;42.720;23.344;2023-02-28T09:55:22;19.50;;;10.13;;
59263;SDS011;45030;42.720;23.344;2023-02-28T09:57:48;21.95;;;12.43;;
59263;SDS011;45030;42.720;23.344;2023-02-28T10:00:34;27.02;;;12.77;;
59263;SDS011;45030;42.720;23.344;2023-02-28T10:03:17;21.17;;;13.00;;
59263;SDS011;45030;42.720;23.344;2023-02-28T10:08:25;23.40;;;12.13;;
59263;SDS011;45030;42.720;23.344;2023-02-28T10:10:53;24.27;;;10.38;;
59263;SDS011;45030;42.720;23.344;2023-02-28T10:13:36;18.33;;;11.65;;
59263;SDS011;45030;42.720;23.344;2023-02-28T10:23:49;19.23;;;10.27;;
59263;SDS011;45030;42.720;23.344;2023-02-28T10:26:17;19.98;;;10.38;;
59263;SDS011;45030;42.720;23.344;2023-02-28T10:28:43;22.17;;;10.18;;
59263;SDS011;45030;42.720;23.344;2023-02-28T10:31:15;18.92;;;10.95;;
59263;SDS011;45030;42.720;23.344;2023-02-28T10:33:42;14.75;;;8.32;;
59263;SDS011;45030;42.720;23.344;2023-02-28T10:36:08;18.15;;;9.57;;
59263;SDS011;45030;42.720;23.344;2023-02-28T10:38:36;16.15;;;9.25;;
59263;SDS011;45030;42.720;23.344;2023-02-28T10:41:03;17.98;;;9.55;;
59263;SDS011;45030;42.720;23.344;2023-02-28T10:43:29;21.30;;;11.43;;
59263;SDS011;45030;42.720;23.344;2023-02-28T10:46:04;18.40;;;9.25;;
59263;SDS011;45030;42.720;23.344;2023-02-28T10:48:36;17.30;;;7.80;;
59263;SDS011;45030;42.720;23.344;2023-02-28T10:51:02;24.35;;;9.63;;
59263;SDS011;45030;42.720;23.344;2023-02-28T10:53:33;17.40;;;8.40;;
59263;SDS011;45030;42.720;23.344;2023-02-28T10:58:31;17.25;;;9.98;;
59263;SDS011;45030;42.720;23.344;2023-02-28T11:00:58;19.00;;;9.60;;
59263;SDS011;45030;42.720;23.344;2023-02-28T11:03:25;21.45;;;12.27;;
59263;SDS011;45030;42.720;23.344;2023-02-28T11:05:53;19.58;;;10.55;;
59263;SDS011;45030;42.720;23.344;2023-02-28T11:08:18;17.98;;;9.30;;
59263;SDS011;45030;42.720;23.344;2023-02-28T11:10:45;19.65;;;10.98;;
59263;SDS011;45030;42.720;23.344;2023-02-28T11:13:17;19.38;;;10.52;;
59263;SDS011;45030;42.720;23.344;2023-02-28T11:15:49;23.73;;;12.03;;
59263;SDS011;45030;42.720;23.344;2023-02-28T11:20:46;19.50;;;9.48;;
59263;SDS011;45030;42.720;23.344;2023-02-28T11:23:13;19.85;;;9.32;;
59263;SDS011;45030;42.720;23.344;2023-02-28T11:25:39;15.57;;;7.90;;
59263;SDS011;45030;42.720;23.344;2023-02-28T11:28:05;26.02;;;12.98;;
59263;SDS011;45030;42.720;23.344;2023-02-28T11:30:41;24.05;;;12.15;;
59263;SDS011;45030;42.720;23.344;2023-02-28T11:33:21;21.45;;;12.18;;
59263;SDS011;45030;42.720;23.344;2023-02-28T11:35:46;18.55;;;10.55;;
59263;SDS011;45030;42.720;23.344;2023-02-28T11:38:13;19.25;;;9.85;;
59263;SDS011;45030;42.720;23.344;2023-02-28T11:40:50;16.88;;;8.13;;
59263;SDS011;45030;42.720;23.344;2023-02-28T11:43:21;13.63;;;7.63;;
59263;SDS011;45030;42.720;23.344;2023-02-28T11:51:16;20.10;;;10.40;;
59263;SDS011;45030;42.720;23.344;2023-02-28T11:54:06;20.90;;;11.00;;
59263;SDS011;45030;42.720;23.344;2023-02-28T11:56:37;15.63;;;8.02;;
59263;SDS011;45030;42.720;23.344;2023-02-28T12:07:02;17.10;;;10.25;;
59263;SDS011;45030;42.720;23.344;2023-02-28T12:09:32;20.52;;;8.75;;
59263;SDS011;45030;42.720;23.344;2023-02-28T12:27:52;14.20;;;8.02;;
59263;SDS011;45030;42.720;23.344;2023-02-28T12:32:47;18.80;;;8.55;;
59263;SDS011;45030;42.720;23.344;2023-02-28T12:35:14;15.55;;;7.30;;
59263;SDS011;45030;42.720;23.344;2023-02-28T12:37:42;16.85;;;7.97;;
59263;SDS011;45030;42.720;23.344;2023-02-28T12:40:15;11.68;;;6.40;;
59263;SDS011;45030;42.720;23.344;2023-02-28T12:45:10;18.38;;;8.23;;
59263;SDS011;45030;42.720;23.344;2023-02-28T12:47:38;19.60;;;8.63;;
59263;SDS011;45030;42.720;23.344;2023-02-28T12:50:06;15.98;;;8.13;;
59263;SDS011;45030;42.720;23.344;2023-02-28T12:55:01;18.33;;;8.95;;
59263;SDS011;45030;42.720;23.344;2023-02-28T13:00:03;20.38;;;8.50;;
59263;SDS011;45030;42.720;23.344;2023-02-28T13:09:54;19.98;;;6.63;;
59263;SDS011;45030;42.720;23.344;2023-02-28T13:12:19;22.33;;;10.32;;
59263;SDS011;45030;42.720;23.344;2023-02-28T13:14:45;14.75;;;7.63;;
59263;SDS011;45030;42.720;23.344;2023-02-28T13:17:11;14.05;;;6.28;;
59263;SDS011;45030;42.720;23.344;2023-02-28T13:22:16;21.58;;;8.10;;
59263;SDS011;45030;42.720;23.344;2023-02-28T13:24:45;18.45;;;7.25;;
59263;SDS011;45030;42.720;23.344;2023-02-28T13:27:20;18.05;;;9.32;;
59263;SDS011;45030;42.720;23.344;2023-02-28T13:29:49;12.95;;;7.72;;
59263;SDS011;45030;42.720;23.344;2023-02-28T13:32:19;23.63;;;10.90;;
59263;SDS011;45030;42.720;23.344;2023-02-28T13:35:12;18.52;;;8.98;;
59263;SDS011;45030;42.720;23.344;2023-02-28T13:37:44;18.02;;;8.32;;
59263;SDS011;45030;42.720;23.344;2023-02-28T13:42:35;21.80;;;10.35;;
59263;SDS011;45030;42.720;23.344;2023-02-28T13:47:36;21.48;;;16.23;;
59263;SDS011;45030;42.720;23.344;2023-02-28T13:55:19;25.63;;;9.88;;
59263;SDS011;45030;42.720;23.344;2023-02-28T13:58:09;26.58;;;11.15;;
59263;SDS011;45030;42.720;23.344;2023-02-28T14:05:43;16.00;;;7.78;;
59263;SDS011;45030;42.720;23.344;2023-02-28T14:08:13;59.88;;;24.90;;
59263;SDS011;45030;42.720;23.344;2023-02-28T14:16:00;20.77;;;9.52;;
59263;SDS011;45030;42.720;23.344;2023-02-28T14:18:29;20.10;;;10.05;;
59263;SDS011;45030;42.720;23.344;2023-02-28T14:21:08;17.33;;;8.18;;
59263;SDS011;45030;42.720;23.344;2023-02-28T14:26:02;15.98;;;7.35;;
59263;SDS011;45030;42.720;23.344;2023-02-28T14:31:15;11.50;;;6.47;;
59263;SDS011;45030;42.720;23.344;2023-02-28T14:33:57;18.85;;;9.55;;
59263;SDS011;45030;42.720;23.344;2023-02-28T14:36:31;24.15;;;10.15;;
59263;SDS011;45030;42.720;23.344;2023-02-28T14:38:58;16.75;;;8.90;;
59263;SDS011;45030;42.720;23.344;2023-02-28T14:41:32;17.13;;;8.63;;
59263;SDS011;45030;42.720;23.344;2023-02-28T14:44:00;13.85;;;6.75;;
59263;SDS011;45030;42.720;23.344;2023-02-28T14:46:39;17.92;;;9.68;;
59263;SDS011;45030;42.720;23.344;2023-02-28T14:49:05;14.02;;;5.82;;
59263;SDS011;45030;42.720;23.344;2023-02-28T14:51:32;19.45;;;9.13;;
59263;SDS011;45030;42.720;23.344;2023-02-28T14:53:58;13.18;;;8.65;;
59263;SDS011;45030;42.720;23.344;2023-02-28T14:56:26;19.13;;;9.43;;
59263;SDS011;45030;42.720;23.344;2023-02-28T14:58:53;21.25;;;9.80;;
59263;SDS011;45030;42.720;23.344;2023-02-28T15:01:20;18.38;;;8.77;;
59263;SDS011;45030;42.720;23.344;2023-02-28T15:03:46;17.85;;;9.88;;
59263;SDS011;45030;42.720;23.344;2023-02-28T15:06:13;16.27;;;8.35;;
59263;SDS011;45030;42.720;23.344;2023-02-28T15:08:39;16.25;;;9.80;;
59263;SDS011;45030;42.720;23.344;2023-02-28T15:11:05;15.05;;;7.30;;
59263;SDS011;45030;42.720;23.344;2023-02-28T15:13:36;15.80;;;9.10;;
59263;SDS011;45030;42.720;23.344;2023-02-28T15:16:03;14.25;;;8.82;;
59263;SDS011;45030;42.720;23.344;2023-02-28T15:21:17;33.05;;;19.80;;
59263;SDS011;45030;42.720;23.344;2023-02-28T15:23:44;23.05;;;13.10;;
59263;SDS011;45030;42.720;23.344;2023-02-28T15:26:15;19.77;;;10.98;;
59263;SDS011;45030;42.720;23.344;2023-02-28T15:28:41;76.13;;;36.05;;
59263;SDS011;45030;42.720;23.344;2023-02-28T15:31:17;121.05;;;46.20;;
59263;SDS011;45030;42.720;23.344;2023-02-28T15:33:51;41.38;;;20.98;;
59263;SDS011;45030;42.720;23.344;2023-02-28T15:36:17;23.65;;;10.85;;
59263;SDS011;45030;42.720;23.344;2023-02-28T15:38:50;17.67;;;10.35;;
59263;SDS011;45030;42.720;23.344;2023-02-28T15:41:49;19.25;;;9.32;;
59263;SDS011;45030;42.720;23.344;2023-02-28T15:44:14;17.33;;;9.13;;
59263;SDS011;45030;42.720;23.344;2023-02-28T15:46:41;15.43;;;10.27;;
59263;SDS011;45030;42.720;23.344;2023-02-28T15:49:18;23.58;;;12.05;;
59263;SDS011;45030;42.720;23.344;2023-02-28T15:51:44;23.80;;;12.30;;
59263;SDS011;45030;42.720;23.344;2023-02-28T15:54:13;21.52;;;14.27;;
59263;SDS011;45030;42.720;23.344;2023-02-28T15:56:43;37.28;;;21.77;;
59263;SDS011;45030;42.720;23.344;2023-02-28T15:59:13;46.22;;;16.90;;
59263;SDS011;45030;42.720;23.344;2023-02-28T16:01:40;32.05;;;14.45;;
59263;SDS011;45030;42.720;23.344;2023-02-28T16:04:06;23.15;;;10.38;;
59263;SDS011;45030;42.720;23.344;2023-02-28T16:06:39;37.47;;;14.75;;
59263;SDS011;45030;42.720;23.344;2023-02-28T16:09:08;23.90;;;11.95;;
59263;SDS011;45030;42.720;23.344;2023-02-28T16:11:35;21.45;;;12.82;;
59263;SDS011;45030;42.720;23.344;2023-02-28T16:14:01;29.02;;;10.45;;
59263;SDS011;45030;42.720;23.344;2023-02-28T16:16:26;31.33;;;14.75;;
59263;SDS011;45030;42.720;23.344;2023-02-28T16:18:51;30.83;;;12.40;;
59263;SDS011;45030;42.720;23.344;2023-02-28T16:21:17;19.80;;;8.90;;
59263;SDS011;45030;42.720;23.344;2023-02-28T16:23:42;29.85;;;14.35;;